createdAt,value
2017-10-20T00:02:15.858Z,6.30
2017-10-20T00:04:42.530Z,6.00
2017-10-20T00:07:09.170Z,6.60
2017-10-20T00:09:35.826Z,7.23
2017-10-20T00:12:02.480Z,5.87
2017-10-20T00:14:29.133Z,7.03
2017-10-20T00:16:55.769Z,7.67
2017-10-20T00:19:22.417Z,8.17
2017-10-20T00:21:49.065Z,6.87
2017-10-20T00:24:15.713Z,6.90
2017-10-20T00:26:42.364Z,6.27
2017-10-20T00:29:09.011Z,6.93
2017-10-20T00:31:35.668Z,6.70
2017-10-20T00:34:02.306Z,6.40
2017-10-20T00:36:28.999Z,6.47
2017-10-20T00:38:55.640Z,5.63
2017-10-20T00:41:22.285Z,6.30
2017-10-20T00:43:48.922Z,6.30
2017-10-20T00:46:15.584Z,7.87
2017-10-20T00:48:42.343Z,6.60
2017-10-20T00:51:08.998Z,6.57
2017-10-20T00:53:35.628Z,8.57
2017-10-20T00:56:02.293Z,6.40
2017-10-20T00:58:28.945Z,6.60
2017-10-20T01:00:55.586Z,6.57
2017-10-20T01:03:22.238Z,6.33
2017-10-20T01:05:48.897Z,6.00
2017-10-20T01:08:15.544Z,7.23
2017-10-20T01:10:42.174Z,6.23
2017-10-20T01:13:08.854Z,6.10
2017-10-20T01:15:35.602Z,5.37
2017-10-20T01:18:02.353Z,6.90
2017-10-20T01:20:28.993Z,6.60
2017-10-20T01:22:55.653Z,6.80
2017-10-20T01:25:22.285Z,6.93
2017-10-20T01:27:48.962Z,6.07
2017-10-20T01:30:15.704Z,5.80
2017-10-20T01:32:42.345Z,5.73
2017-10-20T01:35:09.010Z,7.17
2017-10-20T01:37:35.662Z,5.30
2017-10-20T01:40:02.313Z,6.70
2017-10-20T01:42:28.953Z,6.37
2017-10-20T01:44:55.712Z,6.63
2017-10-20T01:47:22.354Z,10.43
2017-10-20T01:49:49.009Z,7.87
2017-10-20T01:52:15.650Z,7.90
2017-10-20T01:54:42.280Z,6.00
2017-10-20T01:57:08.965Z,5.80
2017-10-20T01:59:35.609Z,6.10
2017-10-20T02:02:02.256Z,6.70
2017-10-20T02:04:28.892Z,6.23
2017-10-20T02:06:55.547Z,6.47
2017-10-20T02:09:22.194Z,6.60
2017-10-20T02:11:48.857Z,6.40
2017-10-20T02:14:15.484Z,6.40
2017-10-20T02:16:42.274Z,5.67
2017-10-20T02:19:08.926Z,5.53
2017-10-20T02:21:35.556Z,6.03
2017-10-20T02:24:02.214Z,5.67
2017-10-20T02:26:28.848Z,7.20
2017-10-20T02:28:55.506Z,5.77
2017-10-20T02:31:22.151Z,6.13
2017-10-20T02:33:48.800Z,4.93
2017-10-20T02:36:15.442Z,6.00
2017-10-20T02:38:42.098Z,7.23
2017-10-20T02:41:08.776Z,5.50
2017-10-20T02:43:35.532Z,7.27
2017-10-20T02:46:02.166Z,5.73
2017-10-20T02:48:28.805Z,7.13
2017-10-20T02:50:55.485Z,5.53
2017-10-20T02:53:22.119Z,5.30
2017-10-20T02:55:48.782Z,5.67
2017-10-20T02:58:15.430Z,6.50
2017-10-20T03:00:42.080Z,6.07
2017-10-20T03:03:08.708Z,6.37
2017-10-20T03:05:35.373Z,5.93
2017-10-20T03:08:02.014Z,5.70
2017-10-20T03:10:28.670Z,5.83
2017-10-20T03:12:55.314Z,5.33
2017-10-20T03:15:21.974Z,6.03
2017-10-20T03:17:48.617Z,6.07
2017-10-20T03:20:15.286Z,5.93
2017-10-20T03:22:41.936Z,6.43
2017-10-20T03:25:08.592Z,6.17
2017-10-20T03:27:35.249Z,5.20
2017-10-20T03:30:01.886Z,5.80
2017-10-20T03:32:28.649Z,6.30
2017-10-20T03:34:55.284Z,5.90
2017-10-20T03:37:21.932Z,6.07
2017-10-20T03:39:48.560Z,6.67
2017-10-20T03:42:15.204Z,5.33
2017-10-20T03:44:41.908Z,6.97
2017-10-20T03:47:08.576Z,6.30
2017-10-20T03:49:35.216Z,5.17
2017-10-20T03:52:01.849Z,5.30
2017-10-20T03:54:28.605Z,5.90
2017-10-20T03:56:55.253Z,6.97
2017-10-20T03:59:21.897Z,7.33
2017-10-20T04:01:48.532Z,6.03
2017-10-20T04:04:15.183Z,6.07
2017-10-20T04:06:41.812Z,4.83
2017-10-20T04:09:08.471Z,5.53
2017-10-20T04:11:35.113Z,5.60
2017-10-20T04:14:01.745Z,8.13
2017-10-20T04:16:28.388Z,6.80
2017-10-20T04:18:55.100Z,6.20
2017-10-20T04:21:21.766Z,5.90
2017-10-20T04:23:48.401Z,5.80
2017-10-20T04:26:15.049Z,6.57
2017-10-20T04:28:41.686Z,5.63
2017-10-20T04:31:08.345Z,6.10
2017-10-20T04:33:35.005Z,7.33
2017-10-20T04:36:01.761Z,5.57
2017-10-20T04:38:28.411Z,6.77
2017-10-20T04:40:55.064Z,5.53
2017-10-20T04:43:21.704Z,5.27
2017-10-20T04:45:48.337Z,5.27
2017-10-20T04:48:15.012Z,6.60
2017-10-20T04:50:41.642Z,5.63
2017-10-20T04:53:08.288Z,8.00
2017-10-20T04:55:34.929Z,5.87
2017-10-20T04:58:01.576Z,5.93
2017-10-20T05:00:28.208Z,6.17
2017-10-20T05:02:54.921Z,5.60
2017-10-20T05:05:21.547Z,6.47
2017-10-20T05:07:48.222Z,5.50
2017-10-20T05:10:14.866Z,5.37
2017-10-20T05:12:41.525Z,4.80
2017-10-20T05:15:08.172Z,6.80
2017-10-20T05:17:34.804Z,5.53
2017-10-20T05:20:01.468Z,5.57
2017-10-20T05:22:28.100Z,5.73
2017-10-20T05:24:54.758Z,5.97
2017-10-20T05:27:21.440Z,5.40
2017-10-20T05:29:48.179Z,5.97
2017-10-20T05:32:14.821Z,5.33
2017-10-20T05:34:41.472Z,5.23
2017-10-20T05:37:08.100Z,5.53
2017-10-20T05:39:34.784Z,7.20
2017-10-20T05:42:01.419Z,5.50
2017-10-20T05:44:28.284Z,6.10
2017-10-20T05:46:54.916Z,6.43
2017-10-20T05:49:21.595Z,4.73
2017-10-20T05:51:48.240Z,5.30
2017-10-20T05:54:14.889Z,5.27
2017-10-20T05:56:41.640Z,6.07
2017-10-20T05:59:08.268Z,5.50
2017-10-20T06:01:34.940Z,4.90
2017-10-20T06:04:01.593Z,5.23
2017-10-20T06:06:28.244Z,5.87
2017-10-20T06:08:54.878Z,5.30
2017-10-20T06:11:21.512Z,5.00
2017-10-20T06:13:48.164Z,7.17
2017-10-20T06:16:14.840Z,5.27
2017-10-20T06:18:41.489Z,5.20
2017-10-20T06:21:08.144Z,4.80
2017-10-20T06:23:34.800Z,14.63
2017-10-20T06:26:01.441Z,5.20
2017-10-20T06:28:28.088Z,9.60
2017-10-20T06:30:54.728Z,9.23
2017-10-20T06:33:21.389Z,8.13
2017-10-20T06:35:48.021Z,6.30
2017-10-20T06:38:14.653Z,9.57
2017-10-20T06:40:41.312Z,15.70
2017-10-20T06:43:07.945Z,7.20
2017-10-20T06:45:34.652Z,5.30
2017-10-20T06:48:01.280Z,7.00
2017-10-20T06:50:27.930Z,7.07
2017-10-20T06:52:54.559Z,5.70
2017-10-20T06:55:21.226Z,8.23
2017-10-20T06:57:47.866Z,7.80
2017-10-20T07:00:14.562Z,5.37
2017-10-20T07:02:41.193Z,5.77
2017-10-20T07:05:07.820Z,5.53
2017-10-20T07:07:34.504Z,5.83
2017-10-20T07:10:01.140Z,6.50
2017-10-20T07:12:27.785Z,5.13
2017-10-20T07:14:54.425Z,5.63
2017-10-20T07:17:21.076Z,6.87
2017-10-20T07:19:59.552Z,10.10
2017-10-20T07:22:26.206Z,7.43
2017-10-20T07:24:52.841Z,5.87
2017-10-20T07:27:19.489Z,7.93
2017-10-20T07:29:46.140Z,10.70
2017-10-20T07:32:12.773Z,5.73
2017-10-20T07:34:39.420Z,5.47
2017-10-20T07:37:06.052Z,5.20
2017-10-20T07:39:32.705Z,12.90
2017-10-20T07:41:59.343Z,4.80
2017-10-20T07:44:25.996Z,7.57
2017-10-20T07:46:52.630Z,5.80
2017-10-20T07:49:19.281Z,7.63
2017-10-20T07:51:45.997Z,5.57
2017-10-20T07:54:12.670Z,6.90
2017-10-20T07:56:39.300Z,7.13
2017-10-20T07:59:05.929Z,6.57
2017-10-20T08:01:32.576Z,4.97
2017-10-20T08:03:59.209Z,5.97
2017-10-20T08:06:25.860Z,5.37
2017-10-20T08:08:52.497Z,9.17
2017-10-20T08:11:19.145Z,4.53
2017-10-20T08:13:45.777Z,5.53
2017-10-20T08:16:12.423Z,5.77
2017-10-20T08:18:39.055Z,4.83
2017-10-20T08:21:05.720Z,8.20
2017-10-20T08:23:32.353Z,8.33
2017-10-20T08:25:58.984Z,5.17
2017-10-20T08:28:25.654Z,6.57
2017-10-20T08:30:52.303Z,5.00
2017-10-20T08:33:18.948Z,7.80
2017-10-20T08:35:45.604Z,5.50
2017-10-20T08:38:12.356Z,7.10
2017-10-20T08:40:38.984Z,6.90
2017-10-20T08:43:05.628Z,6.50
2017-10-20T08:45:32.260Z,6.00
2017-10-20T08:47:58.910Z,5.17
2017-10-20T08:50:25.549Z,27.60
2017-10-20T08:52:52.196Z,9.43
2017-10-20T08:55:18.833Z,7.73
2017-10-20T08:57:45.509Z,18.33
2017-10-20T09:00:12.147Z,22.13
2017-10-20T09:02:38.778Z,14.73
2017-10-20T09:05:05.435Z,17.40
2017-10-20T09:07:32.068Z,14.50
2017-10-20T09:09:58.725Z,15.23
2017-10-20T09:12:25.372Z,14.50
2017-10-20T09:14:52.033Z,11.10
2017-10-20T09:17:18.664Z,15.53
2017-10-20T09:19:45.312Z,13.27
2017-10-20T09:22:11.949Z,14.60
2017-10-20T09:24:38.613Z,15.67
2017-10-20T09:27:05.244Z,15.70
2017-10-20T09:29:31.901Z,13.90
2017-10-20T09:31:58.537Z,13.33
2017-10-20T09:34:25.204Z,15.47
2017-10-20T09:36:51.837Z,12.07
2017-10-20T09:39:18.471Z,12.93
2017-10-20T09:41:45.986Z,11.07
2017-10-20T09:44:12.624Z,16.60
2017-10-20T09:46:39.271Z,13.83
2017-10-20T09:49:05.904Z,13.73
2017-10-20T09:51:32.561Z,16.87
2017-10-20T09:53:59.196Z,14.30
2017-10-20T09:56:25.852Z,9.93
2017-10-20T09:58:52.494Z,12.27
2017-10-20T10:01:19.156Z,11.47
2017-10-20T10:03:45.792Z,11.30
2017-10-20T10:06:12.428Z,13.47
2017-10-20T10:08:39.089Z,16.90
2017-10-20T10:11:05.729Z,17.17
2017-10-20T10:13:32.374Z,9.97
2017-10-20T10:15:59.013Z,12.87
2017-10-20T10:18:25.667Z,10.90
2017-10-20T10:20:52.301Z,9.43
2017-10-20T10:23:18.951Z,11.37
2017-10-20T10:25:45.584Z,10.77
2017-10-20T10:28:12.242Z,12.43
2017-10-20T10:30:38.872Z,12.40
2017-10-20T10:33:05.537Z,12.03
2017-10-20T10:35:32.172Z,11.47
2017-10-20T10:37:58.804Z,12.07
2017-10-20T10:40:25.464Z,10.70
2017-10-20T10:42:52.096Z,9.57
2017-10-20T10:45:18.747Z,9.60
2017-10-20T10:47:45.386Z,11.83
2017-10-20T10:50:12.032Z,9.27
2017-10-20T10:52:38.664Z,10.83
2017-10-20T10:55:05.334Z,13.33
2017-10-20T10:57:31.970Z,10.10
2017-10-20T10:59:58.620Z,9.43
2017-10-20T11:02:25.257Z,13.03
2017-10-20T11:04:51.908Z,11.47
2017-10-20T11:07:24.460Z,12.33
2017-10-20T11:09:56.888Z,11.07
2017-10-20T11:12:29.240Z,12.07
2017-10-20T11:14:55.881Z,11.40
2017-10-20T11:17:22.541Z,11.27
2017-10-20T11:19:49.176Z,10.10
2017-10-20T11:22:15.901Z,8.10
2017-10-20T11:24:42.532Z,10.13
2017-10-20T11:27:09.180Z,10.60
2017-10-20T11:29:35.816Z,9.97
2017-10-20T11:32:02.473Z,10.83
2017-10-20T11:34:29.106Z,8.13
2017-10-20T11:36:55.760Z,11.90
2017-10-20T11:39:22.388Z,9.00
2017-10-20T11:41:49.020Z,11.97
2017-10-20T11:44:15.669Z,8.93
2017-10-20T11:46:42.297Z,8.63
2017-10-20T11:49:08.956Z,10.03
2017-10-20T11:51:35.593Z,8.90
2017-10-20T11:54:02.245Z,10.23
2017-10-20T11:56:28.876Z,10.03
2017-10-20T11:58:55.533Z,8.40
2017-10-20T12:01:22.164Z,7.60
2017-10-20T12:03:48.821Z,9.57
2017-10-20T12:06:15.455Z,9.90
2017-10-20T12:08:42.101Z,9.40
2017-10-20T12:11:08.743Z,7.53
2017-10-20T12:13:35.398Z,8.93
2017-10-20T12:16:02.028Z,9.17
2017-10-20T12:18:28.656Z,8.20
2017-10-20T12:20:55.301Z,8.97
2017-10-20T12:23:21.941Z,13.87
2017-10-20T12:25:48.583Z,9.67
2017-10-20T12:28:15.229Z,6.17
2017-10-20T12:30:41.886Z,9.37
2017-10-20T12:33:08.522Z,7.57
2017-10-20T12:35:35.185Z,11.57
2017-10-20T12:38:01.820Z,7.23
2017-10-20T12:40:28.478Z,7.87
2017-10-20T12:42:55.137Z,7.53
2017-10-20T12:45:21.793Z,7.80
2017-10-20T12:47:48.428Z,7.07
2017-10-20T12:50:15.069Z,9.60
2017-10-20T12:52:41.725Z,10.07
2017-10-20T12:55:08.352Z,9.40
2017-10-20T12:57:35.003Z,8.43
2017-10-20T13:00:01.638Z,7.10
2017-10-20T13:02:28.298Z,6.70
2017-10-20T13:04:54.936Z,7.53
2017-10-20T13:07:21.584Z,6.70
2017-10-20T13:09:48.208Z,6.87
2017-10-20T13:12:14.864Z,6.63
2017-10-20T13:14:41.492Z,6.73
2017-10-20T13:17:08.172Z,8.43
2017-10-20T13:19:34.800Z,5.93
2017-10-20T13:22:01.429Z,6.67
2017-10-20T13:24:28.084Z,10.10
2017-10-20T13:26:54.713Z,7.03
2017-10-20T13:29:21.360Z,6.40
2017-10-20T13:31:47.989Z,6.67
2017-10-20T13:34:14.641Z,6.87
2017-10-20T13:36:41.273Z,6.03
2017-10-20T13:39:07.924Z,5.97
2017-10-20T13:41:34.569Z,7.67
2017-10-20T13:44:01.213Z,7.27
2017-10-20T13:46:27.868Z,7.57
2017-10-20T13:48:54.505Z,6.63
2017-10-20T13:51:21.150Z,7.80
2017-10-20T13:53:47.782Z,9.97
2017-10-20T13:56:14.440Z,6.47
2017-10-20T13:58:41.084Z,6.37
2017-10-20T14:01:07.742Z,7.43
2017-10-20T14:03:34.382Z,5.60
2017-10-20T14:06:01.044Z,6.73
2017-10-20T14:08:27.677Z,7.47
2017-10-20T14:10:54.315Z,7.60
2017-10-20T14:13:20.967Z,5.80
2017-10-20T14:15:47.593Z,5.63
2017-10-20T14:18:14.244Z,4.83
2017-10-20T14:20:40.880Z,5.40
2017-10-20T14:23:07.531Z,5.30
2017-10-20T14:25:34.167Z,6.83
2017-10-20T14:28:00.817Z,5.77
2017-10-20T14:30:27.447Z,6.90
2017-10-20T14:32:54.112Z,7.63
2017-10-20T14:35:20.748Z,5.63
2017-10-20T14:37:47.377Z,6.57
2017-10-20T14:40:14.024Z,6.50
2017-10-20T14:42:40.657Z,6.93
2017-10-20T14:45:07.305Z,6.77
2017-10-20T14:47:33.934Z,5.07
2017-10-20T14:50:00.576Z,5.73
2017-10-20T14:52:27.200Z,5.97
2017-10-20T14:54:53.853Z,5.37
2017-10-20T14:57:20.492Z,6.23
2017-10-20T14:59:47.141Z,6.27
2017-10-20T15:02:13.773Z,5.43
2017-10-20T15:04:40.440Z,5.60
2017-10-20T15:07:07.077Z,5.80
2017-10-20T15:09:33.705Z,6.47
2017-10-20T15:12:00.372Z,5.20
2017-10-20T15:14:27.009Z,6.23
2017-10-20T15:16:53.661Z,5.60
2017-10-20T15:19:20.293Z,6.00
2017-10-20T15:21:46.953Z,5.80
2017-10-20T15:24:13.594Z,4.53
2017-10-20T15:26:40.246Z,5.60
2017-10-20T15:29:06.876Z,6.30
2017-10-20T15:31:33.533Z,4.50
2017-10-20T15:34:00.171Z,5.00
2017-10-20T15:36:26.800Z,5.87
2017-10-20T15:38:53.449Z,5.70
2017-10-20T15:41:20.085Z,6.63
2017-10-20T15:43:46.737Z,4.60
2017-10-20T15:46:13.368Z,7.70
2017-10-20T15:48:40.017Z,4.93
2017-10-20T15:51:06.650Z,4.60
2017-10-20T15:53:33.302Z,5.53
2017-10-20T15:55:59.933Z,4.20
2017-10-20T15:58:26.560Z,6.13
2017-10-20T16:00:53.208Z,5.77
2017-10-20T16:03:19.837Z,5.03
2017-10-20T16:05:46.658Z,6.23
2017-10-20T16:08:13.317Z,4.73
2017-10-20T16:10:39.967Z,4.67
2017-10-20T16:13:06.597Z,4.87
2017-10-20T16:15:33.250Z,9.77
2017-10-20T16:17:59.880Z,10.27
2017-10-20T16:20:26.517Z,3.70
2017-10-20T16:22:53.181Z,4.53
2017-10-20T16:25:19.813Z,7.23
2017-10-20T16:27:46.501Z,9.73
2017-10-20T16:30:13.145Z,6.43
2017-10-20T16:32:39.901Z,4.97
2017-10-20T16:35:06.561Z,4.03
2017-10-20T16:37:33.218Z,4.63
2017-10-20T16:39:59.849Z,9.63
2017-10-20T16:42:26.500Z,4.30
2017-10-20T16:44:53.140Z,11.07
2017-10-20T16:47:19.801Z,4.80
2017-10-20T16:49:46.456Z,5.97
2017-10-20T16:52:13.085Z,7.47
2017-10-20T16:54:39.736Z,4.00
2017-10-20T16:57:06.378Z,16.63
2017-10-20T16:59:33.033Z,3.70
2017-10-20T17:01:59.665Z,6.80
2017-10-20T17:04:26.461Z,5.67
2017-10-20T17:06:53.149Z,5.70
2017-10-20T17:09:19.805Z,4.53
2017-10-20T17:11:46.450Z,4.00
2017-10-20T17:14:13.169Z,6.97
2017-10-20T17:16:39.801Z,4.10
2017-10-20T17:19:06.456Z,5.53
2017-10-20T17:21:33.084Z,5.13
2017-10-20T17:23:59.718Z,8.93
2017-10-20T17:26:26.368Z,4.67
2017-10-20T17:28:53.002Z,4.97
2017-10-20T17:31:19.677Z,4.83
2017-10-20T17:33:46.309Z,4.40
2017-10-20T17:36:12.961Z,4.63
2017-10-20T17:38:39.680Z,6.00
2017-10-20T17:41:06.337Z,5.37
2017-10-20T17:43:32.974Z,5.33
2017-10-20T17:45:59.724Z,7.00
2017-10-20T17:48:26.412Z,4.20
2017-10-20T17:50:53.130Z,6.77
2017-10-20T17:53:19.885Z,6.67
2017-10-20T17:55:46.529Z,4.97
2017-10-20T17:58:13.177Z,5.97
2017-10-20T18:00:39.836Z,4.63
2017-10-20T18:03:06.593Z,5.03
2017-10-20T18:05:33.220Z,4.10
2017-10-20T18:07:59.903Z,4.23
2017-10-20T18:10:26.533Z,3.60
2017-10-20T18:12:53.185Z,6.10
2017-10-20T18:15:19.813Z,4.70
2017-10-20T18:17:46.449Z,3.60
2017-10-20T18:20:13.236Z,4.00
2017-10-20T18:22:39.881Z,4.33
2017-10-20T18:25:06.538Z,3.77
2017-10-20T18:27:33.208Z,3.23
2017-10-20T18:29:59.852Z,3.10
2017-10-20T18:32:26.509Z,3.40
2017-10-20T18:34:53.259Z,5.20
2017-10-20T18:37:19.897Z,4.23
2017-10-20T18:39:46.553Z,3.93
2017-10-20T18:42:13.241Z,5.23
2017-10-20T18:44:39.882Z,5.47
2017-10-20T18:47:06.608Z,7.27
2017-10-20T18:49:33.263Z,3.80
2017-10-20T18:51:59.913Z,3.97
2017-10-20T18:54:27.094Z,4.13
2017-10-20T18:56:53.748Z,3.10
2017-10-20T18:59:20.477Z,5.63
2017-10-20T19:01:47.105Z,4.10
2017-10-20T19:04:13.769Z,3.77
2017-10-20T19:06:40.404Z,3.70
2017-10-20T19:09:07.057Z,6.53
2017-10-20T19:11:33.729Z,5.53
2017-10-20T19:14:00.380Z,3.70
2017-10-20T19:16:27.014Z,4.10
2017-10-20T19:18:53.665Z,3.80
2017-10-20T19:21:20.301Z,3.63
2017-10-20T19:23:46.981Z,7.07
2017-10-20T19:26:13.617Z,4.20
2017-10-20T19:28:40.293Z,3.73
2017-10-20T19:31:06.932Z,3.50
2017-10-20T19:33:33.598Z,5.83
2017-10-20T19:36:00.253Z,4.40
2017-10-20T19:38:26.880Z,3.53
2017-10-20T19:40:53.528Z,4.17
2017-10-20T19:43:20.161Z,3.57
2017-10-20T19:45:47.656Z,4.53
2017-10-20T19:48:14.285Z,4.83
2017-10-20T19:50:40.960Z,3.70
2017-10-20T19:53:07.592Z,3.40
2017-10-20T19:55:34.248Z,5.00
2017-10-20T19:58:00.876Z,4.70
2017-10-20T20:00:27.577Z,4.53
2017-10-20T20:02:54.220Z,3.53
2017-10-20T20:05:20.857Z,3.73
2017-10-20T20:07:47.518Z,3.10
2017-10-20T20:10:14.159Z,3.40
2017-10-20T20:12:40.805Z,3.67
2017-10-20T20:15:07.435Z,3.60
2017-10-20T20:17:34.127Z,3.63
2017-10-20T20:20:00.766Z,4.43
2017-10-20T20:22:27.418Z,3.70
2017-10-20T20:24:54.048Z,4.03
2017-10-20T20:27:20.705Z,3.43
2017-10-20T20:29:47.334Z,3.20
2017-10-20T20:32:19.770Z,4.33
2017-10-20T20:34:46.421Z,4.23
2017-10-20T20:37:13.061Z,3.63
2017-10-20T20:39:39.713Z,2.90
2017-10-20T20:42:06.340Z,3.33
2017-10-20T20:44:32.984Z,2.80
2017-10-20T20:46:59.620Z,2.87
2017-10-20T20:49:26.272Z,4.70
2017-10-20T20:51:52.901Z,3.27
2017-10-20T20:54:19.552Z,3.87
2017-10-20T20:56:46.185Z,3.53
2017-10-20T20:59:12.917Z,5.77
2017-10-20T21:01:39.768Z,3.23
2017-10-20T21:04:06.400Z,3.33
2017-10-20T21:06:33.063Z,3.43
2017-10-20T21:08:59.710Z,3.53
2017-10-20T21:11:26.586Z,3.50
2017-10-20T21:13:53.229Z,4.20
2017-10-20T21:16:19.877Z,4.53
2017-10-20T21:18:46.513Z,3.40
2017-10-20T21:21:13.175Z,3.23
2017-10-20T21:23:39.836Z,3.47
2017-10-20T21:26:06.903Z,3.23
2017-10-20T21:28:33.578Z,3.10
2017-10-20T21:31:00.260Z,2.50
2017-10-20T21:33:26.903Z,3.50
2017-10-20T21:35:53.532Z,3.03
2017-10-20T21:38:20.188Z,3.70
2017-10-20T21:40:46.817Z,3.30
2017-10-20T21:43:13.549Z,3.70
2017-10-20T21:45:40.177Z,4.57
2017-10-20T21:48:06.858Z,3.10
2017-10-20T21:50:33.504Z,4.40
2017-10-20T21:53:00.141Z,2.97
2017-10-20T21:55:26.796Z,3.03
2017-10-20T21:57:53.432Z,2.70
2017-10-20T22:00:20.101Z,3.40
2017-10-20T22:02:46.733Z,4.20
2017-10-20T22:05:13.384Z,2.77
2017-10-20T22:07:40.021Z,3.47
2017-10-20T22:10:06.652Z,2.63
2017-10-20T22:12:33.297Z,4.33
2017-10-20T22:15:00.004Z,3.40
2017-10-20T22:17:26.752Z,2.90
2017-10-20T22:19:53.384Z,3.27
2017-10-20T22:22:20.059Z,3.50
2017-10-20T22:24:46.708Z,3.03
2017-10-20T22:27:13.365Z,3.03
2017-10-20T22:29:40.001Z,3.20
2017-10-20T22:32:06.637Z,2.73
2017-10-20T22:34:33.311Z,2.43
2017-10-20T22:36:59.940Z,2.80
2017-10-20T22:39:26.605Z,2.67
2017-10-20T22:41:53.241Z,2.97
2017-10-20T22:44:19.902Z,3.40
2017-10-20T22:46:46.536Z,2.87
2017-10-20T22:49:13.180Z,2.40
2017-10-20T22:51:39.828Z,3.90
2017-10-20T22:54:06.462Z,3.07
2017-10-20T22:56:33.112Z,4.27
2017-10-20T22:58:59.741Z,2.83
2017-10-20T23:01:26.390Z,3.40
2017-10-20T23:03:53.017Z,2.37
2017-10-20T23:06:19.772Z,2.50
2017-10-20T23:08:46.410Z,3.10
2017-10-20T23:11:13.040Z,3.60
2017-10-20T23:13:39.693Z,2.60
2017-10-20T23:16:06.338Z,2.60
2017-10-20T23:18:32.989Z,3.17
2017-10-20T23:20:59.628Z,3.00
2017-10-20T23:23:26.280Z,2.60
2017-10-20T23:25:52.908Z,2.97
2017-10-20T23:28:19.562Z,4.13
2017-10-20T23:30:46.192Z,3.07
2017-10-20T23:33:12.844Z,3.10
2017-10-20T23:35:39.499Z,3.00
2017-10-20T23:38:06.140Z,3.30
2017-10-20T23:40:32.789Z,2.60
2017-10-20T23:42:59.528Z,2.40
2017-10-20T23:45:26.276Z,3.10
2017-10-20T23:47:52.905Z,3.10
2017-10-20T23:50:19.541Z,2.17
2017-10-20T23:52:46.228Z,3.73
2017-10-20T23:55:12.888Z,3.43
2017-10-20T23:57:39.537Z,2.77
